Time;durP1;ratioP1;P1;durP2;ratioP2;P2;SDS_P1;SDS_P2;PMS_P1;PMS_P2;Temp;Humidity;BMP_temperature;BMP_pressure;BME280_temperature;BME280_humidity;BME280_pressure;Samples;Min_cycle;Max_cycle;Signal;HPM_P1;HPM_P2
2022/07/16 00:03:38;;;;;;;3.27;3.03;;;21.50;67.10;;;21.99;51.41;95042.06;5027698;28;20467;-58
2022/07/16 00:06:05;;;;;;;5.03;2.50;;;21.40;67.20;;;21.97;51.28;95044.94;5049526;28;20476;-65
2022/07/16 00:08:33;;;;;;;17.67;2.97;;;21.40;67.20;;;21.96;51.24;95037.13;5048025;28;20995;-59
2022/07/16 00:11:00;;;;;;;2.20;2.10;;;21.40;67.20;;;21.95;51.48;95036.31;5048902;28;20530;-65
2022/07/16 00:13:27;;;;;;;6.23;2.70;;;21.40;67.50;;;21.94;51.42;95041.88;5049130;28;20451;-58
2022/07/16 00:15:55;;;;;;;6.57;2.50;;;21.40;67.70;;;21.92;51.53;95033.19;5048676;28;20482;-65
2022/07/16 00:21:16;;;;;;;6.90;3.10;;;21.40;68.10;;;21.88;51.82;95038.16;5019108;28;20491;-59
2022/07/16 00:23:43;;;;;;;15.33;2.70;;;21.30;68.00;;;21.87;51.83;95043.72;5050058;28;20463;-59
2022/07/16 00:26:11;;;;;;;3.30;3.00;;;21.30;68.00;;;21.85;52.13;95043.94;5048237;28;20823;-63
2022/07/16 00:28:38;;;;;;;2.20;2.10;;;21.30;68.70;;;21.82;51.73;95042.47;5050045;28;20463;-64
2022/07/16 00:31:05;;;;;;;4.30;2.40;;;21.30;68.00;;;21.81;51.86;95046.19;5048674;28;21020;-60
2022/07/16 00:33:33;;;;;;;2.73;2.30;;;21.30;68.70;;;21.79;52.04;95040.19;5045198;28;20485;-64
2022/07/16 00:36:00;;;;;;;2.90;2.57;;;21.30;68.80;;;21.78;52.08;95035.91;5049570;28;20475;-64
2022/07/16 00:38:28;;;;;;;8.00;3.13;;;21.30;68.80;;;21.75;52.13;95041.66;5047744;28;20816;-59
2022/07/16 00:40:55;;;;;;;7.63;2.83;;;21.20;69.00;;;21.74;52.56;95040.00;5048015;28;20519;-64
2022/07/16 00:43:23;;;;;;;8.20;2.97;;;21.20;69.50;;;21.73;52.22;95050.91;5049423;28;20988;-59
2022/07/16 00:45:50;;;;;;;8.40;3.20;;;21.20;69.60;;;21.71;52.52;95051.13;5045286;28;20502;-64
2022/07/16 00:48:17;;;;;;;13.00;2.33;;;21.20;69.60;;;21.70;52.56;95054.00;5050339;28;20537;-64
2022/07/16 00:50:45;;;;;;;3.00;2.70;;;21.20;69.80;;;21.67;52.48;95052.56;5049873;28;20544;-59
2022/07/16 00:53:12;;;;;;;6.30;2.90;;;21.10;70.00;;;21.67;52.50;95049.88;5050128;28;20459;-64
2022/07/16 00:55:41;;;;;;;12.77;2.90;;;21.10;70.10;;;21.66;52.84;95056.28;5045027;28;20624;-60
2022/07/16 00:58:08;;;;;;;6.33;2.70;;;21.10;70.20;;;21.65;52.60;95052.75;5049694;28;20464;-64
2022/07/16 01:00:35;;;;;;;1.80;1.70;;;21.10;70.10;;;21.65;52.51;95051.94;5044361;28;20529;-64
2022/07/16 01:03:02;;;;;;;5.10;3.07;;;21.10;70.00;;;21.64;52.50;95045.78;5047053;28;20482;-58
2022/07/16 01:05:30;;;;;;;3.53;2.60;;;21.10;70.10;;;21.63;52.47;95049.47;5046950;28;20553;-64
2022/07/16 01:07:57;;;;;;;4.57;2.60;;;21.10;69.90;;;21.63;52.37;95049.47;5046973;28;20513;-65
2022/07/16 01:10:24;;;;;;;5.50;2.07;;;21.10;69.50;;;21.63;52.10;95048.66;5046048;28;20534;-64
2022/07/16 01:12:52;;;;;;;3.90;1.80;;;21.10;69.30;;;21.60;51.87;95051.75;5049575;28;20541;-65
2022/07/16 01:15:20;;;;;;;1.97;1.87;;;21.10;69.10;;;21.59;52.07;95044.72;5045403;28;20452;-61
2022/07/16 01:17:47;;;;;;;4.90;2.80;;;21.00;69.10;;;21.58;51.89;95054.63;5046479;28;20460;-59
2022/07/16 01:20:14;;;;;;;4.23;1.97;;;21.00;69.10;;;21.56;51.84;95050.50;5045307;28;20460;-64
2022/07/16 01:22:41;;;;;;;2.57;2.07;;;21.00;69.20;;;21.53;51.75;95054.38;5046628;28;20572;-64
2022/07/16 01:25:11;;;;;;;2.30;2.20;;;21.00;68.80;;;21.49;51.91;95048.63;5044014;28;20523;-64
2022/07/16 01:27:39;;;;;;;1.93;1.83;;;21.00;69.20;;;21.46;51.92;95050.88;5045250;28;20487;-64
2022/07/16 01:30:09;;;;;;;4.17;1.97;;;20.90;69.30;;;21.44;52.20;95047.53;5048432;28;20909;-57
2022/07/16 01:32:36;;;;;;;4.10;2.40;;;20.90;69.60;;;21.42;52.04;95060.31;5048710;28;20454;-59
2022/07/16 01:35:04;;;;;;;5.13;2.03;;;20.90;69.60;;;21.37;52.03;95052.91;5046369;28;20447;-59
2022/07/16 01:37:31;;;;;;;3.60;2.07;;;20.90;69.20;;;21.33;51.66;95050.81;5049292;28;20463;-59
2022/07/16 01:39:58;;;;;;;3.20;1.80;;;20.80;69.30;;;21.27;51.38;95052.44;5051170;28;20466;-64
2022/07/16 01:42:27;;;;;;;2.20;2.10;;;20.80;68.60;;;21.23;51.27;95053.91;5048460;28;20525;-57
2022/07/16 01:44:54;;;;;;;2.20;2.10;;;20.70;68.50;;;21.20;51.30;95056.97;5044967;28;20486;-64
2022/07/16 01:47:21;;;;;;;6.73;2.00;;;20.70;68.50;;;21.14;51.58;95059.41;5048912;28;20524;-59
2022/07/16 01:49:48;;;;;;;3.93;2.10;;;20.60;68.60;;;21.10;51.68;95055.50;5047191;28;20470;-58
2022/07/16 01:52:18;;;;;;;4.43;1.87;;;20.60;68.90;;;21.09;51.46;95061.06;5046695;28;20557;-64
2022/07/16 01:54:47;;;;;;;2.37;2.20;;;20.60;69.00;;;21.07;52.10;95065.78;5047692;28;20464;-60
2022/07/16 01:57:15;;;;;;;2.10;2.00;;;20.60;69.50;;;21.06;52.16;95062.25;5044985;28;20526;-59
2022/07/16 01:59:43;;;;;;;3.80;2.03;;;20.60;69.60;;;21.07;52.29;95063.94;5050560;28;20462;-65
2022/07/16 02:02:11;;;;;;;2.80;2.10;;;20.50;70.00;;;21.06;52.12;95064.94;5045756;28;20491;-58
2022/07/16 02:04:38;;;;;;;1.77;1.60;;;20.50;69.70;;;21.07;52.00;95063.13;5044755;28;20490;-64
2022/07/16 02:07:05;;;;;;;2.37;2.17;;;20.50;69.70;;;21.07;52.20;95061.25;5049774;28;20553;-59
2022/07/16 02:09:33;;;;;;;3.20;2.00;;;20.50;70.00;;;21.04;52.43;95066.19;5044981;28;21009;-63
2022/07/16 02:12:00;;;;;;;4.40;1.80;;;20.50;70.10;;;21.02;52.62;95069.06;5050732;28;20901;-64
2022/07/16 02:14:27;;;;;;;2.23;2.13;;;20.50;70.10;;;20.98;52.21;95067.78;5047624;28;20505;-64
2022/07/16 02:16:56;;;;;;;3.63;2.17;;;20.50;69.80;;;20.94;52.46;95058.50;5045572;28;20475;-64
2022/07/16 02:19:23;;;;;;;2.47;2.30;;;20.40;69.70;;;20.88;52.22;95059.31;5044991;28;20545;-63
2022/07/16 02:21:50;;;;;;;2.40;2.20;;;20.40;69.70;;;20.86;51.96;95059.50;5041201;28;20492;-57
2022/07/16 02:24:17;;;;;;;2.50;2.23;;;20.40;69.90;;;20.80;52.53;95067.50;5046628;28;22198;-59
2022/07/16 02:26:45;;;;;;;2.93;2.57;;;20.30;70.30;;;20.77;52.57;95072.25;5047368;28;20475;-63
2022/07/16 02:29:12;;;;;;;5.87;2.30;;;20.30;70.30;;;20.73;52.46;95068.31;5048086;28;21026;-62
2022/07/16 02:31:40;;;;;;;2.50;2.30;;;20.30;70.60;;;20.68;52.36;95072.59;5045169;28;20514;-63
2022/07/16 02:34:08;;;;;;;3.20;2.00;;;20.20;70.40;;;20.64;52.65;95066.78;5053216;28;20540;-64
2022/07/16 02:36:36;;;;;;;3.40;2.13;;;20.20;70.90;;;20.61;53.01;95072.53;5048809;28;20553;-57
2022/07/16 02:39:03;;;;;;;3.47;2.30;;;20.10;71.20;;;20.57;53.22;95073.94;5055184;28;20537;-59
2022/07/16 02:41:30;;;;;;;5.63;3.63;;;20.10;71.40;;;20.55;53.33;95081.31;5048872;28;20483;-58
2022/07/16 02:43:57;;;;;;;5.10;2.77;;;20.10;71.50;;;20.51;53.40;95072.03;5043888;28;20459;-57
2022/07/16 02:46:24;;;;;;;13.67;3.03;;;20.00;71.90;;;20.48;53.60;95080.44;5052852;28;20574;-63
2022/07/16 02:48:51;;;;;;;5.57;3.40;;;20.00;72.40;;;20.45;53.95;95084.38;5048792;28;20490;-59
2022/07/16 02:51:20;;;;;;;4.07;2.60;;;20.00;73.10;;;20.42;53.64;95082.91;5047631;28;20476;-58
2022/07/16 02:53:47;;;;;;;2.30;2.10;;;19.90;73.20;;;20.37;53.89;95077.31;5053527;28;20467;-58
2022/07/16 02:56:14;;;;;;;7.77;2.73;;;19.90;72.60;;;20.30;53.44;95087.13;5050579;28;20475;-58
2022/07/16 02:58:42;;;;;;;5.83;2.20;;;19.80;73.00;;;20.23;54.12;95086.25;5047599;28;20460;-64
2022/07/16 03:01:09;;;;;;;3.10;2.70;;;19.80;73.10;;;20.20;54.23;95087.47;5052983;28;20475;-64
2022/07/16 03:03:36;;;;;;;6.40;2.87;;;19.70;73.60;;;20.19;54.52;95093.84;5051177;28;21088;-59
2022/07/16 03:06:03;;;;;;;3.20;2.50;;;19.70;73.80;;;20.18;54.81;95088.69;5052526;28;20487;-64
2022/07/16 03:08:32;;;;;;;5.20;2.97;;;19.70;74.60;;;20.20;54.95;95091.97;5048708;28;20463;-63
2022/07/16 03:10:59;;;;;;;5.47;2.53;;;19.70;74.80;;;20.21;55.20;95096.31;5050103;28;20479;-57
2022/07/16 03:13:26;;;;;;;2.77;2.37;;;19.70;75.30;;;20.22;55.43;95095.31;5047707;28;20455;-64
2022/07/16 03:15:54;;;;;;;2.90;2.00;;;19.70;75.60;;;20.22;55.03;95098.78;5047434;28;20481;-64
2022/07/16 03:18:21;;;;;;;9.33;3.00;;;19.70;75.60;;;20.24;55.64;95087.91;5047349;28;20459;-58
2022/07/16 03:20:49;;;;;;;4.70;3.10;;;19.80;75.70;;;20.23;55.22;95091.59;5044322;28;20568;-64
2022/07/16 03:23:16;;;;;;;6.13;2.60;;;19.70;75.60;;;20.23;55.31;95097.78;5049428;28;20502;-58
2022/07/16 03:25:44;;;;;;;8.47;3.07;;;19.70;75.70;;;20.21;55.45;95093.63;5049752;28;20479;-64
2022/07/16 03:28:12;;;;;;;4.10;3.03;;;19.70;76.00;;;20.22;55.55;95105.97;5047337;28;20467;-62
2022/07/16 03:30:39;;;;;;;7.63;3.60;;;19.70;76.20;;;20.22;55.45;95106.81;5048555;28;20479;-59
2022/07/16 03:33:06;;;;;;;5.20;3.40;;;19.80;76.30;;;20.24;55.54;95098.59;5047722;28;20545;-58
2022/07/16 03:35:34;;;;;;;5.53;3.27;;;19.80;76.30;;;20.24;55.62;95101.25;5049928;28;21030;-65
2022/07/16 03:40:47;;;;;;;5.90;2.70;;;19.80;76.40;;;20.23;55.20;95107.63;5046392;28;21221;-59
2022/07/16 03:43:14;;;;;;;3.80;2.83;;;19.70;76.30;;;20.22;55.53;95100.63;5048808;28;20491;-59
2022/07/16 03:45:41;;;;;;;3.53;3.00;;;19.70;76.40;;;20.21;55.62;95110.47;5045349;28;20481;-63
2022/07/16 03:48:09;;;;;;;3.53;2.77;;;19.70;76.60;;;20.19;55.47;95112.53;5047692;28;20456;-65
2022/07/16 03:50:36;;;;;;;2.97;2.60;;;19.70;76.70;;;20.17;55.96;95111.91;5046226;28;20895;-60
2022/07/16 03:53:03;;;;;;;11.10;3.07;;;19.70;76.80;;;20.16;55.27;95112.09;5049198;28;20567;-58
2022/07/16 03:55:30;;;;;;;5.47;3.20;;;19.70;76.70;;;20.14;55.67;95108.78;5054095;28;20901;-59
2022/07/16 03:57:59;;;;;;;3.27;3.07;;;19.70;76.80;;;20.14;56.16;95114.97;5043861;28;20459;-64
2022/07/16 04:00:26;;;;;;;9.57;3.27;;;19.70;77.30;;;20.14;55.76;95106.09;5047780;28;20472;-64
2022/07/16 04:02:53;;;;;;;5.10;3.50;;;19.60;77.10;;;20.12;55.69;95105.47;5048615;28;20483;-65
2022/07/16 04:05:21;;;;;;;5.77;3.07;;;19.70;77.30;;;20.13;55.66;95105.28;5049245;28;20455;-58
2022/07/16 04:07:48;;;;;;;5.23;2.83;;;19.70;77.30;;;20.12;55.53;95100.97;5043921;28;20836;-60
2022/07/16 04:10:15;;;;;;;6.17;4.07;;;19.70;77.30;;;20.16;55.70;95109.44;5047591;28;20529;-57
2022/07/16 04:12:43;;;;;;;5.73;3.00;;;19.70;77.20;;;20.18;55.34;95110.06;5049200;28;20467;-57
2022/07/16 04:15:12;;;;;;;7.87;3.60;;;19.70;77.30;;;20.18;55.59;95115.38;5047303;28;20447;-64
2022/07/16 04:17:39;;;;;;;14.03;3.80;;;19.70;77.10;;;20.20;55.66;95114.19;5050449;28;20464;-59
2022/07/16 04:20:08;;;;;;;3.47;3.17;;;19.70;77.30;;;20.23;55.63;95115.63;5046334;28;21025;-58
2022/07/16 04:22:35;;;;;;;4.00;3.10;;;19.80;77.40;;;20.27;55.28;95116.91;5046232;28;20487;-64
2022/07/16 04:25:02;;;;;;;6.50;4.13;;;19.80;77.40;;;20.30;55.90;95110.34;5047020;28;20455;-66
2022/07/16 04:27:29;;;;;;;6.83;4.40;;;19.80;78.00;;;20.35;55.81;95115.94;5047650;28;21014;-64
2022/07/16 04:29:56;;;;;;;11.83;4.40;;;19.80;78.50;;;20.40;56.32;95113.50;5046204;28;20490;-58
2022/07/16 04:32:25;;;;;;;9.40;4.10;;;19.90;79.00;;;20.47;56.18;95117.03;5045687;28;20992;-58
2022/07/16 04:34:52;;;;;;;8.00;4.30;;;20.00;78.80;;;20.52;56.23;95113.78;5046821;28;20521;-59
2022/07/16 04:37:19;;;;;;;9.23;3.93;;;20.00;79.00;;;20.56;56.31;95123.06;5046152;28;20901;-65
2022/07/16 04:39:47;;;;;;;9.77;4.37;;;20.10;79.20;;;20.60;56.13;95125.16;5051809;28;20466;-59
2022/07/16 04:42:14;;;;;;;6.93;4.47;;;20.10;79.10;;;20.67;56.33;95124.41;5048385;28;20484;-64
2022/07/16 04:44:41;;;;;;;23.50;4.60;;;20.10;79.20;;;20.72;55.78;95124.63;5045499;28;20517;-58
2022/07/16 04:47:08;;;;;;;11.10;4.03;;;20.20;78.80;;;20.75;55.71;95126.91;5048630;28;20484;-63
2022/07/16 04:49:37;;;;;;;29.13;5.03;;;20.20;78.50;;;20.77;55.59;95136.41;5047506;28;20467;-63
2022/07/16 04:52:05;;;;;;;8.83;4.50;;;20.20;78.40;;;20.81;55.49;95128.00;5049244;28;20498;-64
2022/07/16 04:54:33;;;;;;;4.37;3.43;;;20.30;78.50;;;20.86;55.50;95145.06;5047738;28;20482;-64
2022/07/16 04:57:00;;;;;;;11.23;3.60;;;20.30;78.50;;;20.89;55.60;95138.50;5045422;28;20537;-65
2022/07/16 04:59:27;;;;;;;7.93;4.17;;;20.40;78.80;;;20.92;55.34;95138.94;5048936;28;20982;-64
2022/07/16 05:02:56;;;;;;;6.33;4.00;;;20.40;78.60;;;20.93;55.06;95135.25;5051963;28;20470;-64
2022/07/16 05:04:44;;;;;;;6.00;4.53;;;20.40;78.10;;;20.96;55.19;95142.06;5047407;28;20435;-64
2022/07/16 05:07:11;;;;;;;6.90;4.40;;;20.40;78.40;;;20.98;55.27;95147.22;5047823;28;20537;-64
2022/07/16 05:09:38;;;;;;;7.83;4.57;;;20.50;78.30;;;21.00;55.22;95140.63;5048503;28;20463;-58
2022/07/16 05:12:06;;;;;;;4.60;4.23;;;20.50;78.20;;;21.05;55.13;95154.25;5048802;28;21265;-59
2022/07/16 05:14:33;;;;;;;16.03;4.80;;;20.60;78.30;;;21.09;55.34;95154.66;5047852;28;20490;-59
2022/07/16 05:17:01;;;;;;;11.40;4.40;;;20.60;78.80;;;21.13;55.48;95154.06;5044739;28;20533;-59
2022/07/16 05:19:28;;;;;;;6.50;4.70;;;20.60;78.50;;;21.19;55.51;95152.44;5045249;28;20513;-66
2022/07/16 05:21:56;;;;;;;10.17;4.40;;;20.70;79.00;;;21.27;55.42;95151.44;5045342;28;20475;-59
2022/07/16 05:24:24;;;;;;;9.87;4.60;;;20.70;79.10;;;21.37;55.30;95149.22;5045542;28;20487;-59
2022/07/16 05:26:51;;;;;;;8.73;5.00;;;20.80;78.50;;;21.47;54.99;95141.66;5046685;28;20545;-59
2022/07/16 05:29:18;;;;;;;30.70;5.03;;;20.90;78.40;;;21.61;54.82;95141.69;5048464;28;20520;-64
2022/07/16 05:31:45;;;;;;;5.57;4.60;;;21.00;78.20;;;21.76;54.71;95145.03;5045476;28;20475;-64
2022/07/16 05:34:13;;;;;;;9.00;4.50;;;21.20;78.10;;;21.93;54.45;95150.84;5046016;28;20516;-58
2022/07/16 05:36:40;;;;;;;8.27;4.33;;;21.30;78.00;;;22.11;54.23;95152.13;5046428;28;20475;-63
2022/07/16 05:39:08;;;;;;;5.20;4.27;;;21.50;77.70;;;22.31;54.15;95150.28;5044031;28;20512;-65
2022/07/16 05:41:36;;;;;;;7.43;4.93;;;21.70;77.80;;;22.54;53.79;95149.03;5041647;28;20468;-59
2022/07/16 05:44:03;;;;;;;6.83;4.30;;;21.90;77.50;;;22.74;53.04;95160.56;5042198;28;20568;-63
2022/07/16 05:46:31;;;;;;;6.90;4.83;;;22.10;76.60;;;22.92;52.90;95151.88;5046408;28;20951;-58
2022/07/16 05:48:58;;;;;;;8.73;4.90;;;22.30;76.30;;;23.10;52.80;95155.78;5046200;28;20463;-60
2022/07/16 05:51:26;;;;;;;7.47;4.20;;;22.40;75.80;;;23.28;52.15;95147.03;5042702;28;20539;-60
2022/07/16 05:53:53;;;;;;;12.43;5.33;;;22.60;75.40;;;23.46;52.43;95151.72;5044679;28;20460;-65
2022/07/16 05:56:21;;;;;;;7.40;5.10;;;22.80;75.60;;;23.69;52.18;95153.09;5042857;28;20468;-59
2022/07/16 05:58:49;;;;;;;9.33;4.57;;;23.00;75.10;;;23.92;51.91;95157.91;5042890;28;20901;-64
2022/07/16 06:01:16;;;;;;;15.87;5.77;;;23.20;74.80;;;24.12;51.85;95152.41;5045634;28;20558;-65
2022/07/16 06:03:43;;;;;;;17.93;5.73;;;23.40;74.30;;;24.36;50.96;95156.16;5045873;28;20549;-66
2022/07/16 06:06:11;;;;;;;8.57;4.63;;;23.60;73.90;;;24.56;50.66;95150.63;5043311;28;20483;-62
2022/07/16 06:08:38;;;;;;;15.57;5.27;;;23.80;73.40;;;24.77;50.96;95145.91;5046484;28;20525;-59
2022/07/16 06:11:05;;;;;;;5.73;3.63;;;24.00;72.90;;;24.99;50.56;95152.53;5048462;28;21039;-58
2022/07/16 06:13:33;;;;;;;13.30;5.40;;;24.20;72.20;;;25.17;49.83;95148.19;5048880;28;20444;-60
2022/07/16 06:16:02;;;;;;;8.40;4.97;;;24.40;71.30;;;25.34;49.61;95154.63;5049129;28;20999;-64
2022/07/16 06:18:29;;;;;;;12.93;3.90;;;24.60;71.30;;;25.57;49.50;95150.44;5049266;28;20447;-63
2022/07/16 06:20:57;;;;;;;9.23;4.03;;;24.80;70.60;;;25.82;48.46;95141.41;5049165;28;20467;-60
2022/07/16 06:23:24;;;;;;;4.27;3.87;;;25.00;69.80;;;26.05;48.29;95149.59;5049142;28;21027;-60
2022/07/16 06:25:51;;;;;;;6.27;3.90;;;25.30;69.00;;;26.31;47.88;95144.84;5048246;28;20930;-66
2022/07/16 06:28:19;;;;;;;6.37;3.33;;;25.50;68.50;;;26.52;47.63;95154.25;5047483;28;20447;-65
2022/07/16 06:30:47;;;;;;;10.17;3.73;;;25.70;67.70;;;26.67;47.21;95144.94;5049016;28;20840;-65
2022/07/16 06:33:14;;;;;;;21.57;3.70;;;25.90;66.90;;;26.88;46.92;95151.59;5047066;28;20513;-64
2022/07/16 06:35:41;;;;;;;9.40;3.70;;;26.10;66.10;;;27.09;46.71;95140.19;5048860;28;20613;-61
2022/07/16 06:38:09;;;;;;;11.37;3.67;;;26.30;66.20;;;27.32;46.27;95142.06;5048344;28;20930;-65
2022/07/16 06:40:36;;;;;;;9.30;3.40;;;26.50;65.40;;;27.53;45.95;95142.50;5048984;28;20549;-64
2022/07/16 06:43:03;;;;;;;13.60;3.70;;;26.70;65.00;;;27.72;45.90;95141.25;5044641;28;21053;-64
2022/07/16 06:45:31;;;;;;;14.70;3.50;;;26.90;64.70;;;27.96;45.25;95146.56;5046211;28;20522;-60
2022/07/16 06:47:59;;;;;;;6.80;3.10;;;27.10;64.30;;;28.22;45.14;95142.44;5048836;28;20839;-60
2022/07/16 06:50:26;;;;;;;6.33;3.00;;;27.30;63.30;;;28.47;44.63;95140.44;5048062;28;20548;-64
2022/07/16 06:52:53;;;;;;;5.23;3.20;;;27.60;62.70;;;28.69;44.41;95135.13;5047418;28;20983;-64
2022/07/16 06:55:21;;;;;;;16.40;2.90;;;27.80;62.00;;;28.91;43.70;95146.03;5047165;28;20871;-64
2022/07/16 06:57:48;;;;;;;8.23;3.13;;;28.10;61.70;;;29.12;44.16;95141.69;5047073;28;20451;-60
2022/07/16 07:00:16;;;;;;;8.47;3.30;;;28.30;61.00;;;29.34;43.66;95144.44;5045739;28;20447;-65
2022/07/16 07:02:43;;;;;;;5.53;2.83;;;28.40;61.50;;;29.54;42.22;95148.50;5049105;28;20553;-63
2022/07/16 07:05:12;;;;;;;7.07;2.70;;;28.70;59.60;;;29.72;42.38;95145.47;5048071;28;20452;-59
2022/07/16 07:07:39;;;;;;;6.90;3.20;;;28.90;59.50;;;29.92;42.11;95144.09;5047526;28;20525;-65
2022/07/16 07:10:07;;;;;;;6.60;3.30;;;29.10;59.30;;;30.12;42.30;95151.63;5048127;28;20524;-61
2022/07/16 07:12:34;;;;;;;7.13;3.40;;;29.20;58.50;;;30.30;41.62;95145.78;5048409;28;20466;-65
2022/07/16 07:15:01;;;;;;;4.53;2.60;;;29.40;58.00;;;30.48;40.83;95146.53;5047013;28;20931;-64
2022/07/16 07:17:29;;;;;;;5.80;2.93;;;29.60;57.60;;;30.64;41.27;95144.75;5047012;28;21174;-65
2022/07/16 07:19:56;;;;;;;4.50;2.90;;;29.80;57.20;;;30.79;40.99;95147.59;5048583;28;20190;-58
2022/07/16 07:22:24;;;;;;;5.20;3.40;;;30.00;56.90;;;30.95;40.82;95148.50;5047433;28;20479;-64
2022/07/16 07:24:52;;;;;;;6.47;3.00;;;30.10;56.40;;;31.13;40.06;95139.16;5047557;28;20231;-64
2022/07/16 07:27:19;;;;;;;4.30;2.97;;;30.30;56.60;;;31.30;39.83;95136.25;5045943;28;20370;-65
2022/07/16 07:29:46;;;;;;;11.33;2.90;;;30.40;56.20;;;31.38;39.90;95138.44;5045129;28;20292;-60
2022/07/16 07:32:14;;;;;;;4.50;2.53;;;30.50;55.50;;;31.49;39.47;95143.94;5046833;28;20255;-65
2022/07/16 07:34:42;;;;;;;8.00;2.77;;;30.70;55.10;;;31.61;38.98;95145.38;5051500;28;20674;-61
2022/07/16 07:37:09;;;;;;;2.83;2.63;;;30.80;54.90;;;31.77;39.02;95145.44;5045900;28;20217;-66
2022/07/16 07:39:38;;;;;;;5.87;3.17;;;30.90;54.60;;;31.96;38.35;95143.03;5044656;28;20228;-62
2022/07/16 07:42:05;;;;;;;6.23;3.13;;;31.00;53.40;;;32.10;38.06;95154.25;5046020;28;20221;-60
2022/07/16 07:44:32;;;;;;;10.43;3.90;;;31.20;53.40;;;32.24;37.93;95154.53;5041823;28;20659;-66
2022/07/16 07:47:00;;;;;;;7.53;2.80;;;31.30;53.00;;;32.39;37.91;95148.31;5045583;28;20219;-66
2022/07/16 07:49:27;;;;;;;5.97;2.90;;;31.50;52.60;;;32.51;37.01;95149.69;5045514;28;20255;-64
2022/07/16 07:51:54;;;;;;;4.53;2.83;;;31.60;51.80;;;32.61;37.25;95156.22;5045929;28;20294;-60
2022/07/16 07:54:22;;;;;;;8.43;3.13;;;31.80;51.60;;;32.73;37.04;95166.88;5045120;28;20203;-63
2022/07/16 07:56:50;;;;;;;8.93;2.80;;;31.90;51.30;;;32.88;36.54;95158.69;5048160;28;20312;-60
2022/07/16 07:59:18;;;;;;;13.35;3.00;;;32.00;50.90;;;33.02;36.47;95153.50;5047607;28;20216;-60
2022/07/16 08:01:45;;;;;;;10.15;2.88;;;32.20;50.60;;;33.18;36.20;95157.84;5047580;28;20217;-59
2022/07/16 08:04:12;;;;;;;9.15;2.30;;;32.30;50.40;;;33.33;36.21;95142.56;5043893;28;20233;-62
2022/07/16 08:06:39;;;;;;;21.17;3.58;;;32.50;50.20;;;33.42;35.84;95140.91;5046512;28;20722;-61
2022/07/16 08:09:07;;;;;;;4.53;3.05;;;32.60;49.80;;;33.53;35.60;95139.75;5046142;28;20223;-64
2022/07/16 08:11:34;;;;;;;8.55;2.50;;;32.70;49.60;;;33.67;35.25;95137.25;5035356;28;20330;-62
2022/07/16 08:14:02;;;;;;;5.00;2.58;;;32.80;49.30;;;33.85;35.23;95137.72;5043543;28;20251;-65
2022/07/16 08:16:30;;;;;;;6.65;2.45;;;33.00;49.00;;;33.98;34.86;95148.03;5046018;28;20236;-60
2022/07/16 08:18:57;;;;;;;6.20;2.75;;;33.10;48.70;;;33.99;35.32;95140.66;5041963;28;20205;-64
2022/07/16 08:21:24;;;;;;;10.80;4.47;;;33.20;49.40;;;33.87;36.16;95141.81;5045217;28;20224;-58
2022/07/16 08:26:36;;;;;;;6.95;2.67;;;33.00;50.60;;;33.61;35.66;95137.56;5043409;28;20271;-57
2022/07/16 08:29:05;;;;;;;13.10;2.42;;;32.90;49.70;;;33.46;36.23;95150.13;5045628;28;20229;-64
2022/07/16 08:31:32;;;;;;;3.03;2.72;;;32.80;49.70;;;33.33;36.65;95140.63;5044537;28;20225;-64
2022/07/16 08:33:59;;;;;;;6.20;2.95;;;32.60;50.20;;;33.30;36.88;95143.13;5044831;28;20368;-60
2022/07/16 08:36:28;;;;;;;7.57;2.83;;;32.60;51.00;;;33.31;36.22;95144.72;5044924;28;20209;-66
2022/07/16 08:38:55;;;;;;;4.43;2.67;;;32.50;50.10;;;33.24;36.59;95148.56;5044089;28;20200;-58
2022/07/16 08:41:23;;;;;;;5.15;3.25;;;32.50;50.20;;;33.24;36.68;95150.47;5045311;28;20217;-64
2022/07/16 08:43:50;;;;;;;3.35;2.95;;;32.50;50.20;;;33.27;36.41;95141.75;5045902;28;20232;-65
2022/07/16 08:46:20;;;;;;;19.10;3.10;;;32.50;50.10;;;33.26;35.66;95148.28;5047578;28;20221;-65
2022/07/16 08:48:48;;;;;;;22.50;4.53;;;32.50;49.50;;;33.24;35.83;95150.47;5043054;28;20216;-59
2022/07/16 08:51:15;;;;;;;10.80;3.30;;;32.50;49.20;;;33.22;35.61;95147.22;5044569;28;22500;-59
2022/07/16 08:53:43;;;;;;;7.78;3.03;;;32.50;49.00;;;33.29;35.70;95141.47;5044523;28;20200;-61
2022/07/16 08:56:10;;;;;;;2.97;2.40;;;32.50;49.10;;;33.40;35.19;95143.91;5043722;28;20225;-66
2022/07/16 08:58:37;;;;;;;4.03;2.40;;;32.60;48.50;;;33.49;34.94;95159.69;5042441;28;20216;-60
2022/07/16 09:01:05;;;;;;;6.70;2.53;;;32.60;48.00;;;33.55;35.02;95151.19;5044034;28;20644;-63
2022/07/16 09:03:33;;;;;;;6.07;3.08;;;32.70;48.10;;;33.66;35.00;95151.16;5045591;28;20255;-63
2022/07/16 09:06:01;;;;;;;9.30;2.75;;;32.80;47.90;;;33.79;34.90;95149.75;5038768;28;20271;-61
2022/07/16 09:08:28;;;;;;;4.38;2.63;;;32.90;47.60;;;33.87;33.96;95149.19;5042820;28;20567;-63
2022/07/16 09:10:55;;;;;;;5.22;3.15;;;33.10;47.10;;;33.97;34.32;95153.78;5042347;28;20263;-63
2022/07/16 09:13:23;;;;;;;4.13;3.70;;;33.10;47.10;;;34.07;34.07;95151.81;5048668;28;20579;-69
2022/07/16 09:15:50;;;;;;;6.50;2.75;;;33.20;47.10;;;34.14;34.26;95140.56;5045329;28;20431;-58
2022/07/16 09:18:20;;;;;;;5.47;3.53;;;33.30;47.20;;;34.22;33.77;95145.44;5044824;28;20201;-59
2022/07/16 09:20:51;;;;;;;12.73;2.70;;;33.40;47.20;;;34.33;33.80;95142.66;5043769;28;20625;-59
2022/07/16 09:23:21;;;;;;;163.85;40.38;;;33.50;46.90;;;34.39;34.37;95136.06;5046718;28;20670;-58
2022/07/16 09:25:49;;;;;;;32.53;9.45;;;33.60;46.70;;;34.45;33.96;95135.72;5045302;28;20248;-57
2022/07/16 09:28:17;;;;;;;11.10;2.25;;;33.70;46.80;;;34.50;34.04;95137.59;5044197;28;20399;-65
2022/07/16 09:30:44;;;;;;;13.82;5.43;;;33.70;46.40;;;34.53;33.47;95134.28;5043120;28;20220;-65
2022/07/16 09:33:16;;;;;;;13.50;4.28;;;33.70;46.30;;;34.61;33.87;95138.34;5040843;28;20673;-66
2022/07/16 09:35:43;;;;;;;7.63;2.95;;;33.80;46.20;;;34.66;33.25;95130.91;5046107;28;20224;-60
2022/07/16 09:38:12;;;;;;;14.75;2.90;;;33.90;45.80;;;34.74;33.45;95131.41;5047826;28;20206;-64
2022/07/16 09:40:40;;;;;;;6.78;3.17;;;33.90;45.70;;;34.81;33.12;95130.00;5042852;28;20256;-59
2022/07/16 09:43:19;;;;;;;14.55;3.95;;;34.00;45.30;;;34.88;32.46;95124.19;5046514;28;20247;-64
2022/07/16 09:45:48;;;;;;;3.55;3.20;;;34.00;45.10;;;34.89;32.14;95127.75;5048609;28;20559;-60
2022/07/16 09:48:25;;;;;;;6.07;3.58;;;34.10;45.10;;;34.91;32.36;95129.09;5050073;28;20205;-63
2022/07/16 09:50:54;;;;;;;5.47;2.95;;;34.10;45.40;;;34.96;32.80;95128.22;5046546;28;20232;-63
2022/07/16 09:53:24;;;;;;;6.68;2.55;;;34.10;45.00;;;34.98;32.04;95120.53;5049668;28;20274;-59
2022/07/16 09:56:00;;;;;;;4.85;3.30;;;34.20;44.90;;;35.05;32.46;95123.75;5049556;28;20251;-59
2022/07/16 09:58:27;;;;;;;5.40;2.55;;;34.20;44.80;;;35.07;32.59;95124.28;5046401;28;20880;-59
2022/07/16 10:00:55;;;;;;;2.83;2.58;;;34.20;44.70;;;35.11;32.35;95117.13;5049102;28;20591;-59
2022/07/16 10:03:22;;;;;;;5.07;4.20;;;34.30;44.40;;;35.15;32.98;95122.84;5047994;28;20230;-64
2022/07/16 10:05:49;;;;;;;5.75;4.50;;;34.30;44.60;;;35.16;32.68;95110.78;5049129;28;20293;-60
2022/07/16 10:08:17;;;;;;;3.35;3.05;;;34.40;44.40;;;35.16;32.09;95119.00;5049018;28;20282;-60
2022/07/16 10:10:46;;;;;;;6.07;3.88;;;34.40;44.40;;;35.15;32.29;95115.47;5048825;28;20224;-60
2022/07/16 10:13:13;;;;;;;3.53;3.28;;;34.30;44.40;;;35.14;32.43;95110.28;5047259;28;20628;-68
2022/07/16 10:15:40;;;;;;;3.60;3.30;;;34.40;44.20;;;35.11;31.87;95110.88;5048471;28;20721;-65
2022/07/16 10:18:33;;;;;;;2.88;2.67;;;34.40;44.10;;;35.10;32.15;95111.97;5049199;28;20204;-63
2022/07/16 10:21:05;;;;;;;8.88;2.60;;;34.30;44.00;;;35.11;32.50;95108.13;5046142;28;20225;-59
2022/07/16 10:23:33;;;;;;;2.95;2.63;;;34.30;44.10;;;35.11;32.39;95110.88;5048759;28;20277;-59
2022/07/16 10:26:05;;;;;;;7.32;2.42;;;34.30;44.20;;;35.11;31.65;95099.94;5044319;28;20232;-60
2022/07/16 10:28:46;;;;;;;2.80;2.50;;;34.30;44.20;;;35.14;32.06;95102.06;5049023;28;20201;-64
2022/07/16 10:31:34;;;;;;;2.30;2.10;;;34.30;43.80;;;35.09;31.71;95093.91;5048032;28;20229;-60